createdAt,value
2023-05-13T00:00:58.891Z,59.18
2023-05-13T00:03:26.658Z,59.01
2023-05-13T00:05:54.301Z,58.95
2023-05-13T00:08:21.846Z,58.68
2023-05-13T00:10:49.264Z,58.96
2023-05-13T00:13:16.670Z,58.97
2023-05-13T00:15:44.140Z,59.08
2023-05-13T00:18:12.268Z,59.31
2023-05-13T00:20:40.001Z,59.86
2023-05-13T00:23:07.962Z,59.91
2023-05-13T00:25:35.500Z,59.91
2023-05-13T00:28:03.032Z,60.49
2023-05-13T00:30:31.081Z,61.04
2023-05-13T00:32:58.950Z,61.28
2023-05-13T00:35:26.504Z,61.38
2023-05-13T00:37:53.847Z,62.29
2023-05-13T00:40:23.262Z,62.08
2023-05-13T00:42:51.270Z,62.14
2023-05-13T00:45:18.831Z,62.81
2023-05-13T00:47:46.385Z,62.59
2023-05-13T00:50:14.436Z,62.58
2023-05-13T00:52:42.491Z,62.40
2023-05-13T00:55:10.444Z,63.03
2023-05-13T00:57:38.175Z,62.76
2023-05-13T01:00:06.249Z,63.06
2023-05-13T01:02:55.737Z,62.97
2023-05-13T01:05:28.450Z,63.44
2023-05-13T01:08:22.389Z,63.19
2023-05-13T01:10:52.009Z,63.28
2023-05-13T01:13:28.882Z,63.60
2023-05-13T01:16:18.162Z,63.34
2023-05-13T01:18:49.207Z,63.47
2023-05-13T01:21:16.802Z,63.63
2023-05-13T01:23:44.318Z,63.66
2023-05-13T01:26:14.229Z,63.82
2023-05-13T01:28:41.874Z,63.92
2023-05-13T01:31:11.078Z,63.97
2023-05-13T01:33:39.030Z,63.86
2023-05-13T01:36:07.566Z,63.91
2023-05-13T01:38:37.068Z,64.44
2023-05-13T01:41:04.906Z,64.29
2023-05-13T01:43:32.595Z,64.24
2023-05-13T01:46:01.529Z,64.61
2023-05-13T01:48:29.531Z,64.45
2023-05-13T01:50:58.426Z,64.43
2023-05-13T01:53:28.328Z,64.55
2023-05-13T01:55:58.085Z,64.71
2023-05-13T01:58:25.634Z,64.77
2023-05-13T02:00:57.703Z,64.53
2023-05-13T02:03:25.596Z,64.80
2023-05-13T02:05:53.457Z,64.76
2023-05-13T02:08:22.259Z,65.19
2023-05-13T02:11:00.453Z,65.39
2023-05-13T02:13:31.826Z,65.57
2023-05-13T02:15:59.415Z,65.53
2023-05-13T02:18:27.196Z,65.70
2023-05-13T02:20:54.941Z,65.52
2023-05-13T02:23:22.679Z,65.58
2023-05-13T02:25:51.370Z,65.23
2023-05-13T02:28:19.308Z,65.51
2023-05-13T02:30:46.934Z,65.57
2023-05-13T02:33:15.129Z,65.79
2023-05-13T02:35:43.074Z,65.75
2023-05-13T02:38:10.676Z,65.59
2023-05-13T02:40:38.423Z,66.02
2023-05-13T02:43:06.419Z,66.16
2023-05-13T02:45:47.187Z,66.10
2023-05-13T02:48:15.094Z,65.92
2023-05-13T02:50:42.629Z,66.15
2023-05-13T02:53:11.149Z,66.46
2023-05-13T02:55:43.420Z,66.68
2023-05-13T02:58:11.011Z,66.54
2023-05-13T03:00:38.367Z,66.77
2023-05-13T03:03:05.995Z,66.90
2023-05-13T03:05:35.944Z,66.92
2023-05-13T03:08:03.691Z,67.13
2023-05-13T03:10:31.193Z,67.44
2023-05-13T03:12:58.568Z,67.39
2023-05-13T03:15:25.906Z,67.24
2023-05-13T03:17:55.573Z,66.74
2023-05-13T03:20:23.321Z,67.48
2023-05-13T03:22:50.968Z,67.79
2023-05-13T03:25:18.446Z,67.67
2023-05-13T03:27:51.018Z,67.46
2023-05-13T03:30:21.317Z,67.14
2023-05-13T03:32:57.981Z,66.20
2023-05-13T03:35:25.578Z,65.22
2023-05-13T03:37:55.821Z,63.50
2023-05-13T03:40:23.492Z,62.82
2023-05-13T03:42:51.777Z,62.50
2023-05-13T03:45:21.284Z,62.37
2023-05-13T03:47:54.028Z,62.12
2023-05-13T03:50:24.739Z,62.63
2023-05-13T03:52:53.135Z,62.54
2023-05-13T03:55:22.191Z,62.95
2023-05-13T03:57:51.053Z,62.26
2023-05-13T04:00:21.441Z,61.65
2023-05-13T04:02:49.704Z,60.59
2023-05-13T04:05:19.808Z,59.90
2023-05-13T04:07:47.311Z,59.88
2023-05-13T04:10:15.682Z,59.87
2023-05-13T04:12:43.801Z,59.57
2023-05-13T04:15:11.426Z,59.88
2023-05-13T04:17:38.910Z,59.56
2023-05-13T04:20:07.794Z,58.82
2023-05-13T04:22:35.834Z,59.34
2023-05-13T04:25:03.326Z,59.33
2023-05-13T04:27:31.273Z,58.92
2023-05-13T04:30:08.984Z,58.63
2023-05-13T04:32:39.304Z,59.29
2023-05-13T04:35:09.251Z,59.00
2023-05-13T04:37:37.620Z,58.36
2023-05-13T04:40:08.599Z,58.06
2023-05-13T04:42:36.248Z,58.29
2023-05-13T04:45:04.230Z,58.20
2023-05-13T04:47:35.297Z,57.67
2023-05-13T04:50:02.976Z,57.69
2023-05-13T04:52:32.128Z,57.90
2023-05-13T04:54:59.584Z,57.53
2023-05-13T04:57:28.533Z,56.96
2023-05-13T04:59:56.667Z,56.50
2023-05-13T05:02:24.389Z,56.25
2023-05-13T05:04:51.929Z,56.21
2023-05-13T05:07:20.098Z,55.74
2023-05-13T05:09:49.875Z,55.96
2023-05-13T05:12:17.558Z,55.69
2023-05-13T05:14:47.253Z,55.42
2023-05-13T05:17:18.535Z,54.83
2023-05-13T05:19:46.727Z,54.85
2023-05-13T05:22:15.205Z,54.94
2023-05-13T05:24:42.744Z,54.41
2023-05-13T05:27:10.420Z,54.00
2023-05-13T05:29:37.932Z,53.33
2023-05-13T05:32:06.198Z,53.35
2023-05-13T05:34:33.847Z,52.31
2023-05-13T05:37:01.392Z,51.90
2023-05-13T05:39:29.580Z,51.54
2023-05-13T05:41:57.072Z,50.87
2023-05-13T05:44:24.609Z,50.84
2023-05-13T05:46:55.412Z,50.11
2023-05-13T05:49:23.895Z,50.00
2023-05-13T05:51:51.763Z,49.51
2023-05-13T05:54:20.586Z,49.58
2023-05-13T05:56:48.630Z,49.37
2023-05-13T05:59:16.145Z,49.85
2023-05-13T06:01:43.680Z,49.32
2023-05-13T06:04:11.328Z,49.07
2023-05-13T06:06:40.455Z,49.08
2023-05-13T06:09:08.158Z,49.31
2023-05-13T06:11:35.881Z,49.74
2023-05-13T06:14:04.179Z,49.30
2023-05-13T06:16:31.998Z,49.76
2023-05-13T06:19:00.980Z,48.97
2023-05-13T06:21:28.725Z,48.44
2023-05-13T06:23:56.476Z,48.26
2023-05-13T06:26:23.915Z,47.99
2023-05-13T06:28:51.337Z,48.10
2023-05-13T06:31:19.017Z,47.29
2023-05-13T06:33:47.238Z,47.25
2023-05-13T06:36:14.735Z,46.44
2023-05-13T06:38:42.354Z,45.50
2023-05-13T06:41:09.830Z,46.79
2023-05-13T06:43:39.448Z,47.69
2023-05-13T06:46:16.614Z,46.95
2023-05-13T06:48:44.326Z,46.29
2023-05-13T06:51:11.803Z,45.19
2023-05-13T06:53:39.338Z,45.04
2023-05-13T06:56:07.337Z,44.64
2023-05-13T06:58:34.938Z,43.95
2023-05-13T07:01:03.001Z,43.04
2023-05-13T07:03:30.940Z,42.74
2023-05-13T07:05:58.599Z,41.06
2023-05-13T07:08:26.083Z,41.99
2023-05-13T07:10:53.817Z,43.46
2023-05-13T07:13:21.326Z,42.23
2023-05-13T07:15:48.851Z,42.86
2023-05-13T07:18:16.688Z,41.81
2023-05-13T07:20:44.295Z,41.88
2023-05-13T07:23:11.746Z,40.65
2023-05-13T07:25:40.044Z,39.81
2023-05-13T07:28:10.002Z,39.76
2023-05-13T07:30:40.323Z,38.97
2023-05-13T07:33:07.995Z,39.71
2023-05-13T07:35:35.582Z,40.09
2023-05-13T07:38:04.175Z,40.09
2023-05-13T07:40:32.409Z,41.07
2023-05-13T07:42:59.905Z,39.91
2023-05-13T07:45:27.892Z,39.37
2023-05-13T07:47:55.398Z,40.50
2023-05-13T07:50:22.933Z,39.99
2023-05-13T07:52:51.845Z,40.34
2023-05-13T07:55:19.690Z,40.10
2023-05-13T07:57:47.279Z,39.95
2023-05-13T08:00:15.787Z,39.26
2023-05-13T08:02:44.002Z,38.27
2023-05-13T08:05:12.432Z,38.67
2023-05-13T08:07:40.337Z,38.25
2023-05-13T08:10:08.308Z,38.52
2023-05-13T08:12:35.978Z,38.03
2023-05-13T08:15:04.755Z,38.26
2023-05-13T08:17:33.148Z,37.85
2023-05-13T08:20:04.161Z,37.76
2023-05-13T08:22:32.162Z,38.18
2023-05-13T08:25:01.438Z,37.17
2023-05-13T08:27:29.233Z,36.03
2023-05-13T08:29:56.736Z,35.79
2023-05-13T08:32:24.243Z,35.87
2023-05-13T08:34:51.749Z,35.53
2023-05-13T08:37:19.336Z,35.30
2023-05-13T08:39:47.166Z,34.14
2023-05-13T08:42:19.334Z,35.07
2023-05-13T08:44:46.840Z,33.97
2023-05-13T08:47:46.921Z,33.91
2023-05-13T08:50:14.874Z,35.16
2023-05-13T08:52:43.104Z,35.85
2023-05-13T08:55:10.605Z,33.96
2023-05-13T08:57:39.506Z,33.05
2023-05-13T09:00:07.760Z,34.59
2023-05-13T09:02:35.951Z,35.02
2023-05-13T09:05:07.110Z,33.65
2023-05-13T09:07:37.369Z,34.69
2023-05-13T09:10:06.259Z,33.80
2023-05-13T09:12:53.780Z,33.09
2023-05-13T09:15:23.366Z,33.44
2023-05-13T09:17:53.161Z,33.39
2023-05-13T09:20:21.377Z,34.47
2023-05-13T09:22:50.915Z,33.94
2023-05-13T09:25:20.364Z,34.45
2023-05-13T09:27:50.471Z,35.39
2023-05-13T09:30:17.994Z,33.17
2023-05-13T09:32:45.798Z,34.63
2023-05-13T09:35:17.180Z,34.46
2023-05-13T09:37:48.454Z,33.43
2023-05-13T09:40:17.259Z,32.18
2023-05-13T09:42:45.402Z,31.60
2023-05-13T09:45:14.102Z,33.21
2023-05-13T09:47:42.563Z,32.48
2023-05-13T09:50:11.815Z,32.44
2023-05-13T09:52:40.574Z,32.01
2023-05-13T09:55:09.843Z,30.43
2023-05-13T09:57:39.237Z,30.56
2023-05-13T10:00:10.992Z,30.55
2023-05-13T10:02:43.625Z,30.39
2023-05-13T10:05:11.298Z,29.63
2023-05-13T10:07:39.440Z,29.57
2023-05-13T10:10:07.782Z,30.65
2023-05-13T10:12:36.441Z,30.36
2023-05-13T10:15:05.535Z,31.02
2023-05-13T10:17:33.384Z,30.70
2023-05-13T10:20:01.820Z,30.74
2023-05-13T10:22:30.813Z,31.05
2023-05-13T10:24:59.084Z,30.55
2023-05-13T10:27:28.462Z,31.28
2023-05-13T10:29:57.053Z,31.89
2023-05-13T10:32:25.538Z,30.12
2023-05-13T10:35:00.476Z,30.51
2023-05-13T10:37:27.919Z,31.07
2023-05-13T10:40:01.467Z,30.60
2023-05-13T10:42:43.126Z,31.00
2023-05-13T10:45:11.000Z,30.31
2023-05-13T10:47:39.232Z,29.64
2023-05-13T10:50:22.279Z,29.04
2023-05-13T10:52:50.212Z,29.16
2023-05-13T10:55:19.305Z,29.24
2023-05-13T10:58:11.159Z,28.86
2023-05-13T11:00:43.250Z,30.04
2023-05-13T11:03:14.419Z,30.30
2023-05-13T11:05:44.640Z,30.48
2023-05-13T11:08:12.102Z,30.63
2023-05-13T11:10:39.600Z,29.48
2023-05-13T11:13:13.548Z,30.23
2023-05-13T11:15:54.273Z,29.25
2023-05-13T11:18:29.635Z,28.64
2023-05-13T11:21:05.084Z,29.42
2023-05-13T11:23:49.808Z,29.15
2023-05-13T11:26:17.347Z,29.45
2023-05-13T11:28:59.909Z,29.29
2023-05-13T11:31:28.640Z,28.87
2023-05-13T11:34:09.836Z,28.61
2023-05-13T11:36:38.781Z,28.69
2023-05-13T11:39:14.062Z,27.87
2023-05-13T11:41:50.821Z,27.65
2023-05-13T11:44:20.357Z,28.71
2023-05-13T11:46:55.719Z,29.29
2023-05-13T11:49:44.085Z,28.52
2023-05-13T11:52:16.055Z,28.54
2023-05-13T11:54:53.741Z,27.64
2023-05-13T11:57:28.106Z,28.70
2023-05-13T12:00:00.425Z,28.70
2023-05-13T12:02:29.737Z,28.38
2023-05-13T12:05:02.038Z,28.90
2023-05-13T12:07:29.684Z,27.08
2023-05-13T12:09:58.470Z,27.46
2023-05-13T12:12:28.293Z,28.30
2023-05-13T12:14:56.279Z,28.54
2023-05-13T12:17:25.027Z,28.48
2023-05-13T12:20:05.828Z,28.43
2023-05-13T12:22:34.473Z,28.63
2023-05-13T12:25:36.398Z,28.52
2023-05-13T12:28:10.796Z,28.20
2023-05-13T12:30:39.645Z,28.69
2023-05-13T12:33:15.099Z,28.50
2023-05-13T12:35:43.157Z,29.21
2023-05-13T12:38:17.873Z,29.15
2023-05-13T12:40:48.640Z,28.51
2023-05-13T12:43:17.239Z,29.71
2023-05-13T12:45:45.702Z,28.05
2023-05-13T12:48:14.502Z,28.09
2023-05-13T12:50:42.100Z,27.40
2023-05-13T12:53:09.668Z,28.71
2023-05-13T12:55:40.273Z,27.75
2023-05-13T12:58:11.015Z,26.81
2023-05-13T13:00:39.022Z,27.20
2023-05-13T13:03:08.011Z,27.44
2023-05-13T13:05:36.206Z,26.27
2023-05-13T13:08:05.479Z,27.22
2023-05-13T13:10:33.226Z,27.48
2023-05-13T13:13:01.552Z,26.85
2023-05-13T13:15:29.207Z,26.26
2023-05-13T13:17:56.792Z,27.00
2023-05-13T13:20:24.413Z,27.30
2023-05-13T13:22:53.781Z,26.59
2023-05-13T13:25:22.279Z,25.93
2023-05-13T13:27:50.324Z,27.12
2023-05-13T13:30:17.851Z,26.99
2023-05-13T13:32:45.856Z,26.08
2023-05-13T13:35:13.452Z,25.69
2023-05-13T13:37:41.081Z,26.43
2023-05-13T13:40:09.244Z,26.84
2023-05-13T13:42:44.116Z,27.28
2023-05-13T13:45:13.714Z,27.29
2023-05-13T13:47:41.573Z,26.06
2023-05-13T13:50:09.516Z,26.84
2023-05-13T13:52:37.979Z,26.54
2023-05-13T13:55:06.435Z,26.47
2023-05-13T13:57:34.019Z,27.27
2023-05-13T14:00:01.531Z,27.28
2023-05-13T14:02:29.832Z,27.64
2023-05-13T14:04:57.860Z,27.12
2023-05-13T14:07:25.483Z,27.40
2023-05-13T14:09:52.948Z,27.81
2023-05-13T14:12:20.619Z,26.65
2023-05-13T14:14:48.248Z,26.28
2023-05-13T14:17:15.786Z,27.18
2023-05-13T14:19:43.336Z,26.49
2023-05-13T14:22:10.799Z,26.42
2023-05-13T14:24:38.359Z,27.59
2023-05-13T14:27:06.070Z,28.24
2023-05-13T14:29:33.633Z,27.07
2023-05-13T14:32:03.152Z,27.31
2023-05-13T14:34:30.744Z,27.23
2023-05-13T14:36:58.346Z,26.00
2023-05-13T14:39:25.846Z,25.92
2023-05-13T14:41:53.420Z,26.73
2023-05-13T14:44:21.097Z,26.90
2023-05-13T14:46:50.817Z,26.20
2023-05-13T14:49:18.319Z,27.02
2023-05-13T14:51:45.878Z,25.89
2023-05-13T14:54:13.465Z,25.70
2023-05-13T14:56:41.659Z,25.95
2023-05-13T14:59:09.727Z,26.57
2023-05-13T15:01:38.369Z,26.21
2023-05-13T15:04:06.213Z,26.26
2023-05-13T15:06:36.846Z,26.92
2023-05-13T15:09:05.764Z,27.17
2023-05-13T15:11:33.480Z,26.47
2023-05-13T15:14:01.891Z,26.53
2023-05-13T15:16:29.527Z,25.30
2023-05-13T15:18:57.320Z,26.88
2023-05-13T15:21:24.780Z,26.65
2023-05-13T15:23:52.227Z,25.70
2023-05-13T15:26:19.867Z,26.50
2023-05-13T15:28:47.608Z,26.24
2023-05-13T15:31:15.152Z,26.84
2023-05-13T15:33:44.554Z,26.42
2023-05-13T15:36:12.783Z,25.69
2023-05-13T15:38:40.816Z,25.35
2023-05-13T15:41:08.630Z,25.45
2023-05-13T15:43:36.534Z,25.78
2023-05-13T15:46:04.722Z,26.14
2023-05-13T15:48:33.083Z,26.82
2023-05-13T15:51:03.497Z,26.84
2023-05-13T15:53:31.455Z,26.62
2023-05-13T15:55:58.925Z,27.53
2023-05-13T15:58:26.797Z,27.44
2023-05-13T16:00:54.305Z,27.03
2023-05-13T16:03:22.321Z,27.31
2023-05-13T16:05:49.877Z,27.55
2023-05-13T16:08:18.773Z,27.80
2023-05-13T16:10:47.092Z,27.59
2023-05-13T16:13:14.659Z,27.81
2023-05-13T16:15:42.240Z,28.02
2023-05-13T16:18:09.934Z,27.84
2023-05-13T16:20:37.498Z,28.67
2023-05-13T16:23:05.190Z,29.26
2023-05-13T16:25:33.929Z,28.76
2023-05-13T16:28:01.606Z,29.15
2023-05-13T16:30:29.436Z,30.00
2023-05-13T16:32:57.529Z,30.37
2023-05-13T16:35:25.057Z,30.56
2023-05-13T16:37:52.744Z,31.42
2023-05-13T16:40:20.596Z,31.67
2023-05-13T16:42:48.192Z,31.80
2023-05-13T16:45:15.746Z,32.31
2023-05-13T16:47:43.604Z,32.27
2023-05-13T16:50:11.210Z,32.79
2023-05-13T16:52:38.836Z,33.31
2023-05-13T16:55:06.984Z,33.33
2023-05-13T16:57:35.095Z,33.65
2023-05-13T17:00:02.656Z,33.83
2023-05-13T17:02:30.798Z,34.16
2023-05-13T17:04:58.279Z,34.76
2023-05-13T17:07:25.745Z,34.96
2023-05-13T17:09:53.293Z,35.07
2023-05-13T17:12:21.891Z,35.08
2023-05-13T17:14:49.359Z,35.19
2023-05-13T17:17:16.875Z,35.83
2023-05-13T17:19:44.563Z,36.04
2023-05-13T17:22:12.494Z,36.66
2023-05-13T17:24:40.691Z,36.81
2023-05-13T17:27:08.169Z,37.43
2023-05-13T17:29:35.694Z,37.55
2023-05-13T17:32:03.359Z,37.69
2023-05-13T17:34:30.971Z,37.98
2023-05-13T17:36:58.810Z,38.58
2023-05-13T17:39:28.408Z,38.78
2023-05-13T17:41:55.912Z,38.91
2023-05-13T17:44:24.133Z,39.08
2023-05-13T17:46:51.872Z,38.98
2023-05-13T17:49:19.766Z,38.99
2023-05-13T17:51:47.287Z,39.36
2023-05-13T17:54:15.048Z,39.43
2023-05-13T17:56:42.670Z,39.45
2023-05-13T17:59:10.359Z,39.54
2023-05-13T18:01:38.577Z,39.57
2023-05-13T18:04:06.393Z,39.71
2023-05-13T18:06:34.172Z,39.66
2023-05-13T18:09:02.638Z,40.03
2023-05-13T18:11:30.218Z,40.29
2023-05-13T18:13:57.832Z,40.65
2023-05-13T18:16:25.465Z,40.64
2023-05-13T18:18:53.223Z,41.10
2023-05-13T18:21:23.006Z,41.00
2023-05-13T18:23:50.527Z,40.97
2023-05-13T18:26:18.690Z,41.02
2023-05-13T18:28:46.952Z,41.23
2023-05-13T18:31:14.777Z,41.29
2023-05-13T18:33:42.332Z,41.51
2023-05-13T18:36:10.353Z,41.69
2023-05-13T18:38:39.621Z,41.58
2023-05-13T18:41:07.177Z,41.93
2023-05-13T18:43:34.717Z,42.08
2023-05-13T18:46:02.591Z,42.40
2023-05-13T18:48:30.495Z,42.63
2023-05-13T18:50:57.984Z,43.07
2023-05-13T18:53:25.477Z,43.14
2023-05-13T18:55:53.351Z,43.78
2023-05-13T18:58:21.310Z,44.00
2023-05-13T19:00:49.179Z,44.22
2023-05-13T19:03:17.248Z,43.80
2023-05-13T19:05:46.257Z,43.67
2023-05-13T19:08:14.276Z,43.64
2023-05-13T19:10:42.053Z,43.83
2023-05-13T19:13:09.638Z,43.88
2023-05-13T19:15:37.186Z,44.10
2023-05-13T19:18:04.767Z,44.17
2023-05-13T19:20:32.432Z,43.97
2023-05-13T19:23:00.214Z,43.80
2023-05-13T19:25:28.130Z,44.23
2023-05-13T19:27:56.370Z,44.77
2023-05-13T19:30:24.199Z,45.62
2023-05-13T19:32:52.890Z,45.20
2023-05-13T19:35:20.520Z,45.51
2023-05-13T19:37:48.119Z,45.33
2023-05-13T19:40:15.726Z,45.52
2023-05-13T19:42:43.261Z,45.51
2023-05-13T19:45:11.152Z,45.39
2023-05-13T19:47:39.596Z,45.38
2023-05-13T19:50:07.405Z,45.30
2023-05-13T19:52:35.283Z,45.39
2023-05-13T19:55:03.267Z,45.48
2023-05-13T19:57:31.250Z,45.68
2023-05-13T19:59:58.882Z,45.67
2023-05-13T20:02:26.917Z,45.98
2023-05-13T20:04:54.507Z,45.80
2023-05-13T20:07:22.010Z,46.23
2023-05-13T20:09:49.643Z,45.99
2023-05-13T20:12:17.120Z,46.07
2023-05-13T20:14:48.877Z,45.87
2023-05-13T20:17:18.241Z,46.12
2023-05-13T20:19:47.427Z,46.24
2023-05-13T20:22:16.534Z,46.40
2023-05-13T20:24:48.055Z,46.36
2023-05-13T20:27:16.140Z,46.32
2023-05-13T20:29:44.710Z,46.36
2023-05-13T20:32:12.288Z,46.47
2023-05-13T20:34:41.420Z,46.78
2023-05-13T20:37:09.003Z,46.77
2023-05-13T20:39:36.912Z,46.72
2023-05-13T20:42:04.550Z,46.73
2023-05-13T20:44:33.013Z,47.10
2023-05-13T20:47:01.034Z,47.17
2023-05-13T20:49:28.576Z,47.19
2023-05-13T20:52:01.284Z,47.28
2023-05-13T20:54:29.137Z,47.28
2023-05-13T20:56:56.722Z,47.70
2023-05-13T20:59:24.131Z,48.19
2023-05-13T21:01:51.684Z,48.68
2023-05-13T21:04:19.559Z,48.28
2023-05-13T21:06:47.622Z,48.26
2023-05-13T21:09:15.142Z,47.77
2023-05-13T21:11:43.215Z,47.63
2023-05-13T21:14:10.648Z,46.58
2023-05-13T21:16:38.094Z,46.32
2023-05-13T21:19:05.683Z,46.75
2023-05-13T21:21:33.450Z,47.05
2023-05-13T21:24:00.989Z,47.04
2023-05-13T21:26:28.521Z,47.42
2023-05-13T21:28:55.953Z,47.48
2023-05-13T21:31:23.804Z,47.53
2023-05-13T21:33:51.440Z,47.72
2023-05-13T21:36:19.134Z,48.05
2023-05-13T21:38:46.717Z,48.10
2023-05-13T21:41:14.339Z,48.36
2023-05-13T21:43:41.987Z,48.59
2023-05-13T21:46:09.601Z,48.63
2023-05-13T21:48:37.328Z,48.88
2023-05-13T21:51:04.824Z,48.91
2023-05-13T21:53:33.970Z,49.36
2023-05-13T21:56:02.011Z,49.53
2023-05-13T21:58:29.608Z,49.58
2023-05-13T22:00:57.174Z,49.53
2023-05-13T22:03:24.745Z,49.36
2023-05-13T22:05:52.297Z,49.55
2023-05-13T22:08:21.189Z,49.99
2023-05-13T22:10:48.715Z,50.21
2023-05-13T22:13:17.166Z,50.33
2023-05-13T22:15:44.730Z,50.29
2023-05-13T22:18:12.725Z,49.51
2023-05-13T22:20:40.374Z,50.01
2023-05-13T22:23:07.896Z,50.14
2023-05-13T22:25:35.429Z,50.42
2023-05-13T22:28:03.035Z,50.30
2023-05-13T22:30:31.024Z,50.55
2023-05-13T22:32:59.177Z,50.82
2023-05-13T22:35:28.905Z,51.07
2023-05-13T22:37:56.564Z,51.18
2023-05-13T22:40:24.280Z,51.35
2023-05-13T22:42:52.380Z,51.41
2023-05-13T22:45:20.014Z,51.86
2023-05-13T22:47:48.134Z,51.90
2023-05-13T22:50:15.815Z,52.01
2023-05-13T22:52:43.365Z,52.28
2023-05-13T22:55:11.086Z,52.29
2023-05-13T22:57:39.462Z,52.66
2023-05-13T23:00:07.830Z,52.74
2023-05-13T23:02:35.551Z,53.02
2023-05-13T23:05:03.405Z,53.01
2023-05-13T23:07:30.980Z,53.16
2023-05-13T23:09:58.358Z,53.08
2023-05-13T23:12:26.532Z,53.24
2023-05-13T23:14:53.978Z,53.38
2023-05-13T23:17:21.536Z,53.49
2023-05-13T23:19:48.900Z,54.07
2023-05-13T23:22:16.347Z,54.00
2023-05-13T23:24:43.685Z,54.14
2023-05-13T23:27:11.785Z,54.56
2023-05-13T23:29:39.218Z,54.97
2023-05-13T23:32:07.034Z,54.95
2023-05-13T23:34:34.864Z,55.06
2023-05-13T23:37:02.376Z,54.95
2023-05-13T23:39:29.809Z,55.05
2023-05-13T23:41:57.325Z,55.28
2023-05-13T23:44:24.736Z,55.48
2023-05-13T23:46:52.175Z,55.61
2023-05-13T23:49:19.573Z,55.70
2023-05-13T23:51:47.052Z,55.87
2023-05-13T23:54:14.384Z,56.08
2023-05-13T23:56:41.896Z,56.53
2023-05-13T23:59:09.261Z,56.21
